Malatya Erhaç Airport
LTAT : now visible

Airfield :











YOU CAN JOIN US ON...

 
LOGIN :

Register | Disclaimer

   EN    FR    IT 

 









Legend :    VFR   Marginal VFR   IFR   Intensive IFR   Very Intensive IFR
Visi :
Ceiling :
>= 8 km
>= 3000ft
5 to 8 km
1000 to 3000 ft
1500m to 5 km
500 to 1000 ft
800 to 1500m
200 to 500 ft
< 800m
< 200 ft
Symbols :   Thunderstorms  Fog  Heavy snow  Heavy precipitations  Wind > 20 kt






- Airport Elevation : 2828 ft
- IATA code : MLX


LTAT - Malatya Erhaç

CURRENT METAR :
  • 171750Z 22002KT 4600 BR SCT040 BKN100 M04/M06 Q1023 NOSIG RMK RWY03 21004KT

EXPIRED METARs :
  • 171720Z 18001KT 4800 BR SCT040 BKN100 M03/M04 Q1023 NOSIG RMK RWY03 21002KT
  • 171650Z 27004KT 7000 SCT040 BKN100 M01/M04 Q1023 NOSIG RMK RWY03 25003KT
  • 171620Z 27002KT 7000 SCT040 BKN100 M00/M03 Q1023 NOSIG RMK RWY03 25004KT
  • 171550Z 34002KT 6000 SCT040 BKN100 00/M03 Q1022 NOSIG RMK RWY03 00000KT
  • 171520Z 00000KT 6000 SCT040 BKN100 01/M03 Q1022 NOSIG RMK RWY03 00000KT

TAF COR TAF LTAT
Valid from the 17 at 18:00 until the 18 at 18:00 UTC


171640Z 1718/1818 VRB02KT 4000 BR SCT040 BKN100
TEMPO 1722/1802 2500
TEMPO 1802/1806 1200 BCFG BKN012 BKN035
BECMG 1807/1809 6000



MET'MAP, your aeronautical weather chart ! - Copyright ORBIFLY December 2007 - Disclaimer

ORBIFLY MET'MAP TEAM :

Programming & Development : Alexandra Zaïnal
Concept & original design : Baudouin d'Aumeries
Assistance for programming : Marc-Olivier Méhu
Technical & hardware support : Manuel Goepfert

Contact : metmap@orbifly.com




SOURCES & CREDITS :

   NOAA       Earth
Advisory